sensor_id;sensor_type;location;lat;lon;timestamp;P1;durP1;ratioP1;P2;durP2;ratioP2
31818;SDS011;18384;48.860;9.188;2022-08-20T00:00:43;3.20;;;0.90;;
31818;SDS011;18384;48.860;9.188;2022-08-20T00:03:17;6.25;;;1.25;;
31818;SDS011;18384;48.860;9.188;2022-08-20T00:05:57;2.70;;;0.85;;
31818;SDS011;18384;48.860;9.188;2022-08-20T00:08:41;2.15;;;0.90;;
31818;SDS011;18384;48.860;9.188;2022-08-20T00:11:09;4.15;;;0.95;;
31818;SDS011;18384;48.860;9.188;2022-08-20T00:13:49;2.03;;;0.90;;
31818;SDS011;18384;48.860;9.188;2022-08-20T00:16:21;4.60;;;0.85;;
31818;SDS011;18384;48.860;9.188;2022-08-20T00:18:58;2.87;;;0.90;;
31818;SDS011;18384;48.860;9.188;2022-08-20T00:21:25;2.33;;;1.05;;
31818;SDS011;18384;48.860;9.188;2022-08-20T00:23:52;9.52;;;0.75;;
31818;SDS011;18384;48.860;9.188;2022-08-20T00:26:21;4.43;;;0.90;;
31818;SDS011;18384;48.860;9.188;2022-08-20T00:28:48;2.22;;;0.80;;
31818;SDS011;18384;48.860;9.188;2022-08-20T00:31:16;1.67;;;0.90;;
31818;SDS011;18384;48.860;9.188;2022-08-20T00:33:45;8.00;;;1.05;;
31818;SDS011;18384;48.860;9.188;2022-08-20T00:36:12;1.83;;;0.77;;
31818;SDS011;18384;48.860;9.188;2022-08-20T00:38:41;7.18;;;0.90;;
31818;SDS011;18384;48.860;9.188;2022-08-20T00:41:10;2.22;;;0.70;;
31818;SDS011;18384;48.860;9.188;2022-08-20T00:43:44;1.85;;;0.90;;
31818;SDS011;18384;48.860;9.188;2022-08-20T00:46:34;12.50;;;2.05;;
31818;SDS011;18384;48.860;9.188;2022-08-20T00:49:02;1.70;;;0.82;;
31818;SDS011;18384;48.860;9.188;2022-08-20T00:51:34;2.47;;;1.00;;
31818;SDS011;18384;48.860;9.188;2022-08-20T00:54:18;2.08;;;1.00;;
31818;SDS011;18384;48.860;9.188;2022-08-20T00:56:51;2.08;;;0.77;;
31818;SDS011;18384;48.860;9.188;2022-08-20T00:59:36;7.50;;;0.90;;
31818;SDS011;18384;48.860;9.188;2022-08-20T01:02:06;2.95;;;1.08;;
31818;SDS011;18384;48.860;9.188;2022-08-20T01:04:38;3.17;;;1.25;;
31818;SDS011;18384;48.860;9.188;2022-08-20T01:07:07;1.58;;;0.90;;
31818;SDS011;18384;48.860;9.188;2022-08-20T01:09:34;1.50;;;0.90;;
31818;SDS011;18384;48.860;9.188;2022-08-20T01:12:02;4.65;;;0.90;;
31818;SDS011;18384;48.860;9.188;2022-08-20T01:14:31;5.65;;;0.95;;
31818;SDS011;18384;48.860;9.188;2022-08-20T01:17:16;2.85;;;1.17;;
31818;SDS011;18384;48.860;9.188;2022-08-20T01:20:00;4.03;;;1.42;;
31818;SDS011;18384;48.860;9.188;2022-08-20T01:22:43;2.83;;;1.00;;
31818;SDS011;18384;48.860;9.188;2022-08-20T01:25:48;1.60;;;1.00;;
31818;SDS011;18384;48.860;9.188;2022-08-20T01:28:20;1.70;;;0.80;;
31818;SDS011;18384;48.860;9.188;2022-08-20T01:30:51;8.30;;;1.10;;
31818;SDS011;18384;48.860;9.188;2022-08-20T01:33:18;3.53;;;0.85;;
31818;SDS011;18384;48.860;9.188;2022-08-20T01:35:46;1.65;;;0.90;;
31818;SDS011;18384;48.860;9.188;2022-08-20T01:38:14;1.58;;;0.88;;
31818;SDS011;18384;48.860;9.188;2022-08-20T01:43:53;5.03;;;1.10;;
31818;SDS011;18384;48.860;9.188;2022-08-20T01:46:28;1.50;;;0.90;;
31818;SDS011;18384;48.860;9.188;2022-08-20T01:49:08;2.37;;;1.00;;
31818;SDS011;18384;48.860;9.188;2022-08-20T01:51:40;2.17;;;0.90;;
31818;SDS011;18384;48.860;9.188;2022-08-20T01:54:07;4.00;;;0.93;;
31818;SDS011;18384;48.860;9.188;2022-08-20T01:56:34;4.35;;;0.90;;
31818;SDS011;18384;48.860;9.188;2022-08-20T01:59:16;5.50;;;0.90;;
31818;SDS011;18384;48.860;9.188;2022-08-20T02:04:09;3.03;;;0.88;;
31818;SDS011;18384;48.860;9.188;2022-08-20T02:06:37;2.22;;;1.20;;
31818;SDS011;18384;48.860;9.188;2022-08-20T02:09:10;1.05;;;0.70;;
31818;SDS011;18384;48.860;9.188;2022-08-20T02:11:37;1.98;;;0.93;;
31818;SDS011;18384;48.860;9.188;2022-08-20T02:14:06;2.12;;;1.00;;
31818;SDS011;18384;48.860;9.188;2022-08-20T02:16:35;2.80;;;1.10;;
31818;SDS011;18384;48.860;9.188;2022-08-20T02:19:14;1.73;;;1.00;;
31818;SDS011;18384;48.860;9.188;2022-08-20T02:21:48;2.85;;;0.90;;
31818;SDS011;18384;48.860;9.188;2022-08-20T02:24:19;1.90;;;1.02;;
31818;SDS011;18384;48.860;9.188;2022-08-20T02:26:46;6.22;;;1.10;;
31818;SDS011;18384;48.860;9.188;2022-08-20T02:29:13;3.00;;;1.25;;
31818;SDS011;18384;48.860;9.188;2022-08-20T02:31:41;3.53;;;0.93;;
31818;SDS011;18384;48.860;9.188;2022-08-20T02:34:09;8.57;;;1.25;;
31818;SDS011;18384;48.860;9.188;2022-08-20T02:36:37;1.55;;;0.88;;
31818;SDS011;18384;48.860;9.188;2022-08-20T02:39:06;2.95;;;1.00;;
31818;SDS011;18384;48.860;9.188;2022-08-20T02:41:35;2.65;;;1.10;;
31818;SDS011;18384;48.860;9.188;2022-08-20T02:44:03;3.15;;;1.17;;
31818;SDS011;18384;48.860;9.188;2022-08-20T02:46:31;2.75;;;1.50;;
31818;SDS011;18384;48.860;9.188;2022-08-20T02:48:59;2.62;;;1.10;;
31818;SDS011;18384;48.860;9.188;2022-08-20T02:53:51;3.35;;;1.10;;
31818;SDS011;18384;48.860;9.188;2022-08-20T02:58:44;2.65;;;1.33;;
31818;SDS011;18384;48.860;9.188;2022-08-20T03:01:12;19.50;;;1.30;;
31818;SDS011;18384;48.860;9.188;2022-08-20T03:03:41;5.03;;;1.48;;
31818;SDS011;18384;48.860;9.188;2022-08-20T03:06:09;2.72;;;1.00;;
31818;SDS011;18384;48.860;9.188;2022-08-20T03:08:36;6.68;;;1.12;;
31818;SDS011;18384;48.860;9.188;2022-08-20T03:11:03;3.45;;;0.93;;
31818;SDS011;18384;48.860;9.188;2022-08-20T03:13:30;5.60;;;1.20;;
31818;SDS011;18384;48.860;9.188;2022-08-20T03:15:57;2.37;;;1.10;;
31818;SDS011;18384;48.860;9.188;2022-08-20T03:18:27;4.18;;;1.27;;
31818;SDS011;18384;48.860;9.188;2022-08-20T03:20:58;3.05;;;1.05;;
31818;SDS011;18384;48.860;9.188;2022-08-20T03:25:51;2.50;;;1.20;;
31818;SDS011;18384;48.860;9.188;2022-08-20T03:28:17;3.17;;;1.27;;
31818;SDS011;18384;48.860;9.188;2022-08-20T03:30:44;3.33;;;1.40;;
31818;SDS011;18384;48.860;9.188;2022-08-20T03:33:10;6.22;;;1.35;;
31818;SDS011;18384;48.860;9.188;2022-08-20T03:38:10;1.73;;;1.27;;
31818;SDS011;18384;48.860;9.188;2022-08-20T03:40:38;4.78;;;1.10;;
31818;SDS011;18384;48.860;9.188;2022-08-20T03:43:05;1.95;;;1.12;;
31818;SDS011;18384;48.860;9.188;2022-08-20T03:45:33;2.42;;;1.40;;
31818;SDS011;18384;48.860;9.188;2022-08-20T03:48:03;3.75;;;1.73;;
31818;SDS011;18384;48.860;9.188;2022-08-20T03:50:33;4.22;;;1.40;;
31818;SDS011;18384;48.860;9.188;2022-08-20T03:53:01;3.78;;;1.60;;
31818;SDS011;18384;48.860;9.188;2022-08-20T03:55:29;3.80;;;1.50;;
31818;SDS011;18384;48.860;9.188;2022-08-20T03:57:57;3.12;;;1.55;;
31818;SDS011;18384;48.860;9.188;2022-08-20T04:00:29;7.70;;;1.35;;
31818;SDS011;18384;48.860;9.188;2022-08-20T04:03:03;2.70;;;1.45;;
31818;SDS011;18384;48.860;9.188;2022-08-20T04:05:32;2.45;;;1.42;;
31818;SDS011;18384;48.860;9.188;2022-08-20T04:08:06;3.10;;;1.30;;
31818;SDS011;18384;48.860;9.188;2022-08-20T04:10:35;2.33;;;1.50;;
31818;SDS011;18384;48.860;9.188;2022-08-20T04:13:03;3.40;;;1.92;;
31818;SDS011;18384;48.860;9.188;2022-08-20T04:15:31;3.58;;;1.87;;
31818;SDS011;18384;48.860;9.188;2022-08-20T04:17:59;1.95;;;1.27;;
31818;SDS011;18384;48.860;9.188;2022-08-20T04:20:33;4.47;;;1.90;;
31818;SDS011;18384;48.860;9.188;2022-08-20T04:23:01;3.20;;;1.92;;
31818;SDS011;18384;48.860;9.188;2022-08-20T04:25:28;1.62;;;1.08;;
31818;SDS011;18384;48.860;9.188;2022-08-20T04:27:58;8.48;;;1.90;;
31818;SDS011;18384;48.860;9.188;2022-08-20T04:30:27;2.42;;;1.70;;
31818;SDS011;18384;48.860;9.188;2022-08-20T04:32:54;2.70;;;1.40;;
31818;SDS011;18384;48.860;9.188;2022-08-20T04:35:21;4.12;;;1.40;;
31818;SDS011;18384;48.860;9.188;2022-08-20T04:37:49;2.60;;;1.55;;
31818;SDS011;18384;48.860;9.188;2022-08-20T04:40:23;2.22;;;1.50;;
31818;SDS011;18384;48.860;9.188;2022-08-20T04:43:07;4.07;;;2.00;;
31818;SDS011;18384;48.860;9.188;2022-08-20T04:45:33;2.58;;;1.62;;
31818;SDS011;18384;48.860;9.188;2022-08-20T04:48:03;2.95;;;2.15;;
31818;SDS011;18384;48.860;9.188;2022-08-20T04:50:31;4.05;;;2.00;;
31818;SDS011;18384;48.860;9.188;2022-08-20T04:53:04;2.25;;;1.65;;
31818;SDS011;18384;48.860;9.188;2022-08-20T04:55:33;2.85;;;1.70;;
31818;SDS011;18384;48.860;9.188;2022-08-20T04:58:07;3.78;;;2.00;;
31818;SDS011;18384;48.860;9.188;2022-08-20T05:00:37;4.50;;;1.92;;
31818;SDS011;18384;48.860;9.188;2022-08-20T05:03:04;4.10;;;1.62;;
31818;SDS011;18384;48.860;9.188;2022-08-20T05:05:33;4.12;;;1.90;;
31818;SDS011;18384;48.860;9.188;2022-08-20T05:08:00;6.72;;;2.08;;
31818;SDS011;18384;48.860;9.188;2022-08-20T05:10:26;3.78;;;2.10;;
31818;SDS011;18384;48.860;9.188;2022-08-20T05:12:53;4.95;;;1.98;;
31818;SDS011;18384;48.860;9.188;2022-08-20T05:15:19;3.12;;;1.95;;
31818;SDS011;18384;48.860;9.188;2022-08-20T05:17:45;3.55;;;2.20;;
31818;SDS011;18384;48.860;9.188;2022-08-20T05:22:41;3.95;;;2.10;;
31818;SDS011;18384;48.860;9.188;2022-08-20T05:25:08;3.42;;;2.12;;
31818;SDS011;18384;48.860;9.188;2022-08-20T05:27:35;8.88;;;2.40;;
31818;SDS011;18384;48.860;9.188;2022-08-20T05:30:03;4.65;;;2.12;;
31818;SDS011;18384;48.860;9.188;2022-08-20T05:32:33;4.65;;;2.12;;
31818;SDS011;18384;48.860;9.188;2022-08-20T05:35:03;3.40;;;2.08;;
31818;SDS011;18384;48.860;9.188;2022-08-20T05:37:36;5.12;;;2.20;;
31818;SDS011;18384;48.860;9.188;2022-08-20T05:40:12;6.70;;;2.08;;
31818;SDS011;18384;48.860;9.188;2022-08-20T05:42:40;3.20;;;2.17;;
31818;SDS011;18384;48.860;9.188;2022-08-20T05:45:07;5.93;;;2.50;;
31818;SDS011;18384;48.860;9.188;2022-08-20T05:47:37;8.52;;;2.50;;
31818;SDS011;18384;48.860;9.188;2022-08-20T05:50:06;6.80;;;2.22;;
31818;SDS011;18384;48.860;9.188;2022-08-20T05:52:34;6.97;;;2.22;;
31818;SDS011;18384;48.860;9.188;2022-08-20T05:55:02;3.90;;;2.10;;
31818;SDS011;18384;48.860;9.188;2022-08-20T05:57:31;3.25;;;2.03;;
31818;SDS011;18384;48.860;9.188;2022-08-20T05:59:58;6.87;;;2.40;;
31818;SDS011;18384;48.860;9.188;2022-08-20T06:02:29;3.92;;;2.15;;
31818;SDS011;18384;48.860;9.188;2022-08-20T06:05:13;3.05;;;2.33;;
31818;SDS011;18384;48.860;9.188;2022-08-20T06:07:40;6.57;;;2.40;;
31818;SDS011;18384;48.860;9.188;2022-08-20T06:10:07;5.80;;;2.60;;
31818;SDS011;18384;48.860;9.188;2022-08-20T06:12:34;3.78;;;2.00;;
31818;SDS011;18384;48.860;9.188;2022-08-20T06:15:02;4.45;;;2.50;;
31818;SDS011;18384;48.860;9.188;2022-08-20T06:17:30;7.30;;;3.25;;
31818;SDS011;18384;48.860;9.188;2022-08-20T06:19:58;5.75;;;2.35;;
31818;SDS011;18384;48.860;9.188;2022-08-20T06:22:30;5.45;;;2.50;;
31818;SDS011;18384;48.860;9.188;2022-08-20T06:27:23;5.18;;;2.40;;
31818;SDS011;18384;48.860;9.188;2022-08-20T06:29:50;5.57;;;2.40;;
31818;SDS011;18384;48.860;9.188;2022-08-20T06:32:17;3.58;;;2.10;;
31818;SDS011;18384;48.860;9.188;2022-08-20T06:34:46;3.85;;;2.28;;
31818;SDS011;18384;48.860;9.188;2022-08-20T06:37:13;5.90;;;2.22;;
31818;SDS011;18384;48.860;9.188;2022-08-20T06:39:49;3.33;;;2.10;;
31818;SDS011;18384;48.860;9.188;2022-08-20T06:42:16;4.75;;;2.50;;
31818;SDS011;18384;48.860;9.188;2022-08-20T06:44:44;4.70;;;2.20;;
31818;SDS011;18384;48.860;9.188;2022-08-20T06:47:13;3.85;;;1.90;;
31818;SDS011;18384;48.860;9.188;2022-08-20T06:49:41;5.03;;;2.33;;
31818;SDS011;18384;48.860;9.188;2022-08-20T06:52:08;4.35;;;2.00;;
31818;SDS011;18384;48.860;9.188;2022-08-20T06:54:34;8.63;;;2.47;;
31818;SDS011;18384;48.860;9.188;2022-08-20T06:57:00;5.30;;;2.50;;
31818;SDS011;18384;48.860;9.188;2022-08-20T06:59:28;3.47;;;2.22;;
31818;SDS011;18384;48.860;9.188;2022-08-20T07:01:54;4.45;;;1.98;;
31818;SDS011;18384;48.860;9.188;2022-08-20T07:04:21;8.02;;;2.30;;
31818;SDS011;18384;48.860;9.188;2022-08-20T07:06:49;4.43;;;2.47;;
31818;SDS011;18384;48.860;9.188;2022-08-20T07:09:18;7.10;;;2.50;;
31818;SDS011;18384;48.860;9.188;2022-08-20T07:11:46;7.68;;;2.67;;
31818;SDS011;18384;48.860;9.188;2022-08-20T07:14:13;6.10;;;2.50;;
31818;SDS011;18384;48.860;9.188;2022-08-20T07:16:43;6.00;;;2.67;;
31818;SDS011;18384;48.860;9.188;2022-08-20T07:19:11;3.92;;;2.50;;
31818;SDS011;18384;48.860;9.188;2022-08-20T07:21:38;6.00;;;3.95;;
31818;SDS011;18384;48.860;9.188;2022-08-20T07:26:31;5.03;;;2.60;;
31818;SDS011;18384;48.860;9.188;2022-08-20T07:28:58;3.75;;;2.37;;
31818;SDS011;18384;48.860;9.188;2022-08-20T07:34:09;7.03;;;2.67;;
31818;SDS011;18384;48.860;9.188;2022-08-20T07:36:36;6.18;;;2.42;;
31818;SDS011;18384;48.860;9.188;2022-08-20T07:39:02;9.27;;;2.45;;
31818;SDS011;18384;48.860;9.188;2022-08-20T07:41:30;5.10;;;2.53;;
31818;SDS011;18384;48.860;9.188;2022-08-20T07:43:56;4.45;;;2.67;;
31818;SDS011;18384;48.860;9.188;2022-08-20T07:48:49;4.80;;;2.50;;
31818;SDS011;18384;48.860;9.188;2022-08-20T07:51:16;5.40;;;2.28;;
31818;SDS011;18384;48.860;9.188;2022-08-20T07:53:46;4.37;;;2.70;;
31818;SDS011;18384;48.860;9.188;2022-08-20T07:56:15;4.30;;;2.53;;
31818;SDS011;18384;48.860;9.188;2022-08-20T07:58:48;5.03;;;2.53;;
31818;SDS011;18384;48.860;9.188;2022-08-20T08:01:21;5.50;;;2.50;;
31818;SDS011;18384;48.860;9.188;2022-08-20T08:03:52;4.62;;;2.40;;
31818;SDS011;18384;48.860;9.188;2022-08-20T08:06:19;4.68;;;2.20;;
31818;SDS011;18384;48.860;9.188;2022-08-20T08:08:47;3.22;;;2.17;;
31818;SDS011;18384;48.860;9.188;2022-08-20T08:11:14;6.87;;;2.60;;
31818;SDS011;18384;48.860;9.188;2022-08-20T08:13:43;4.85;;;2.90;;
31818;SDS011;18384;48.860;9.188;2022-08-20T08:16:09;8.43;;;2.75;;
31818;SDS011;18384;48.860;9.188;2022-08-20T08:21:09;4.35;;;2.28;;
31818;SDS011;18384;48.860;9.188;2022-08-20T08:23:39;5.32;;;2.62;;
31818;SDS011;18384;48.860;9.188;2022-08-20T08:26:09;3.85;;;2.80;;
31818;SDS011;18384;48.860;9.188;2022-08-20T08:28:39;9.05;;;3.47;;
31818;SDS011;18384;48.860;9.188;2022-08-20T08:31:08;6.10;;;3.45;;
31818;SDS011;18384;48.860;9.188;2022-08-20T08:33:34;6.50;;;3.47;;
31818;SDS011;18384;48.860;9.188;2022-08-20T08:38:37;4.05;;;2.75;;
31818;SDS011;18384;48.860;9.188;2022-08-20T08:41:27;7.43;;;3.17;;
31818;SDS011;18384;48.860;9.188;2022-08-20T08:44:06;6.60;;;3.80;;
31818;SDS011;18384;48.860;9.188;2022-08-20T08:46:40;7.40;;;4.18;;
31818;SDS011;18384;48.860;9.188;2022-08-20T08:49:11;5.82;;;3.72;;
31818;SDS011;18384;48.860;9.188;2022-08-20T08:52:47;4.97;;;3.10;;
31818;SDS011;18384;48.860;9.188;2022-08-20T08:55:19;3.95;;;3.22;;
31818;SDS011;18384;48.860;9.188;2022-08-20T08:57:47;5.18;;;3.30;;
31818;SDS011;18384;48.860;9.188;2022-08-20T09:00:17;4.35;;;2.58;;
31818;SDS011;18384;48.860;9.188;2022-08-20T09:02:57;4.35;;;2.75;;
31818;SDS011;18384;48.860;9.188;2022-08-20T09:05:30;7.78;;;2.55;;
31818;SDS011;18384;48.860;9.188;2022-08-20T09:08:04;4.87;;;2.40;;
31818;SDS011;18384;48.860;9.188;2022-08-20T09:10:36;4.87;;;2.35;;
31818;SDS011;18384;48.860;9.188;2022-08-20T09:13:03;4.15;;;1.75;;
31818;SDS011;18384;48.860;9.188;2022-08-20T09:15:31;2.70;;;1.55;;
31818;SDS011;18384;48.860;9.188;2022-08-20T09:17:58;2.42;;;1.80;;
31818;SDS011;18384;48.860;9.188;2022-08-20T09:22:50;4.07;;;1.58;;
31818;SDS011;18384;48.860;9.188;2022-08-20T09:25:16;3.12;;;1.87;;
31818;SDS011;18384;48.860;9.188;2022-08-20T09:27:44;3.25;;;1.58;;
31818;SDS011;18384;48.860;9.188;2022-08-20T09:32:36;3.47;;;1.50;;
31818;SDS011;18384;48.860;9.188;2022-08-20T09:35:03;4.07;;;1.55;;
31818;SDS011;18384;48.860;9.188;2022-08-20T09:37:30;3.15;;;1.52;;
31818;SDS011;18384;48.860;9.188;2022-08-20T09:39:57;1.60;;;1.15;;
31818;SDS011;18384;48.860;9.188;2022-08-20T09:42:28;5.30;;;1.80;;
31818;SDS011;18384;48.860;9.188;2022-08-20T09:44:58;3.50;;;1.65;;
31818;SDS011;18384;48.860;9.188;2022-08-20T09:47:25;2.95;;;1.50;;
31818;SDS011;18384;48.860;9.188;2022-08-20T09:49:52;7.47;;;2.05;;
31818;SDS011;18384;48.860;9.188;2022-08-20T09:52:26;3.37;;;2.17;;
31818;SDS011;18384;48.860;9.188;2022-08-20T09:54:59;4.35;;;2.00;;
31818;SDS011;18384;48.860;9.188;2022-08-20T09:57:29;3.83;;;1.83;;
31818;SDS011;18384;48.860;9.188;2022-08-20T10:00:04;3.37;;;1.90;;
31818;SDS011;18384;48.860;9.188;2022-08-20T10:02:33;10.25;;;1.92;;
31818;SDS011;18384;48.860;9.188;2022-08-20T10:07:25;3.30;;;1.87;;
31818;SDS011;18384;48.860;9.188;2022-08-20T10:12:17;2.97;;;1.70;;
31818;SDS011;18384;48.860;9.188;2022-08-20T10:17:09;3.45;;;1.90;;
31818;SDS011;18384;48.860;9.188;2022-08-20T10:22:01;7.57;;;2.00;;
31818;SDS011;18384;48.860;9.188;2022-08-20T10:24:28;2.85;;;1.40;;
31818;SDS011;18384;48.860;9.188;2022-08-20T10:26:56;4.53;;;2.10;;
31818;SDS011;18384;48.860;9.188;2022-08-20T10:29:24;13.07;;;2.10;;
31818;SDS011;18384;48.860;9.188;2022-08-20T10:31:52;2.62;;;1.20;;
31818;SDS011;18384;48.860;9.188;2022-08-20T10:34:21;2.03;;;1.00;;
31818;SDS011;18384;48.860;9.188;2022-08-20T10:36:50;1.62;;;0.80;;
31818;SDS011;18384;48.860;9.188;2022-08-20T10:39:16;4.30;;;0.90;;
31818;SDS011;18384;48.860;9.188;2022-08-20T10:41:43;4.62;;;1.00;;
31818;SDS011;18384;48.860;9.188;2022-08-20T10:46:35;6.25;;;1.30;;
31818;SDS011;18384;48.860;9.188;2022-08-20T10:51:27;3.40;;;1.60;;
31818;SDS011;18384;48.860;9.188;2022-08-20T10:56:19;4.28;;;1.20;;
31818;SDS011;18384;48.860;9.188;2022-08-20T11:01:11;2.17;;;0.80;;
31818;SDS011;18384;48.860;9.188;2022-08-20T11:03:37;2.05;;;0.80;;
31818;SDS011;18384;48.860;9.188;2022-08-20T11:08:29;3.12;;;0.88;;
31818;SDS011;18384;48.860;9.188;2022-08-20T11:10:55;2.15;;;0.77;;
31818;SDS011;18384;48.860;9.188;2022-08-20T11:15:48;5.45;;;0.90;;
31818;SDS011;18384;48.860;9.188;2022-08-20T11:20:40;1.98;;;0.90;;
31818;SDS011;18384;48.860;9.188;2022-08-20T11:25:32;4.62;;;1.40;;
31818;SDS011;18384;48.860;9.188;2022-08-20T11:30:31;1.50;;;0.80;;
31818;SDS011;18384;48.860;9.188;2022-08-20T11:33:00;1.80;;;0.80;;
31818;SDS011;18384;48.860;9.188;2022-08-20T11:35:28;1.67;;;0.60;;
31818;SDS011;18384;48.860;9.188;2022-08-20T11:37:57;0.88;;;0.60;;
31818;SDS011;18384;48.860;9.188;2022-08-20T11:40:24;2.42;;;0.77;;
31818;SDS011;18384;48.860;9.188;2022-08-20T11:42:53;1.35;;;0.50;;
31818;SDS011;18384;48.860;9.188;2022-08-20T11:45:19;0.90;;;0.40;;
31818;SDS011;18384;48.860;9.188;2022-08-20T11:50:13;3.35;;;0.70;;
31818;SDS011;18384;48.860;9.188;2022-08-20T11:52:44;4.93;;;0.80;;
31818;SDS011;18384;48.860;9.188;2022-08-20T11:57:44;5.07;;;0.57;;
31818;SDS011;18384;48.860;9.188;2022-08-20T12:00:13;1.05;;;0.57;;
31818;SDS011;18384;48.860;9.188;2022-08-20T12:02:48;1.73;;;0.70;;
31818;SDS011;18384;48.860;9.188;2022-08-20T12:05:16;4.75;;;0.70;;
31818;SDS011;18384;48.860;9.188;2022-08-20T12:07:43;3.15;;;1.00;;
31818;SDS011;18384;48.860;9.188;2022-08-20T12:10:10;2.03;;;0.70;;
31818;SDS011;18384;48.860;9.188;2022-08-20T12:12:37;4.00;;;0.93;;
31818;SDS011;18384;48.860;9.188;2022-08-20T12:15:03;2.72;;;1.10;;
31818;SDS011;18384;48.860;9.188;2022-08-20T12:17:32;13.32;;;2.45;;
31818;SDS011;18384;48.860;9.188;2022-08-20T12:19:59;2.55;;;0.90;;
31818;SDS011;18384;48.860;9.188;2022-08-20T12:22:30;2.25;;;1.20;;
31818;SDS011;18384;48.860;9.188;2022-08-20T12:27:23;7.00;;;1.67;;
31818;SDS011;18384;48.860;9.188;2022-08-20T12:29:56;4.40;;;1.58;;
31818;SDS011;18384;48.860;9.188;2022-08-20T12:32:25;6.05;;;1.60;;
31818;SDS011;18384;48.860;9.188;2022-08-20T12:34:54;5.15;;;1.58;;
31818;SDS011;18384;48.860;9.188;2022-08-20T12:37:22;5.75;;;1.67;;
31818;SDS011;18384;48.860;9.188;2022-08-20T12:39:52;5.55;;;1.70;;
31818;SDS011;18384;48.860;9.188;2022-08-20T12:42:21;6.37;;;1.62;;
31818;SDS011;18384;48.860;9.188;2022-08-20T12:44:48;5.62;;;1.92;;
31818;SDS011;18384;48.860;9.188;2022-08-20T12:47:16;8.10;;;1.77;;
31818;SDS011;18384;48.860;9.188;2022-08-20T12:50:09;9.35;;;2.40;;
31818;SDS011;18384;48.860;9.188;2022-08-20T12:52:45;9.73;;;2.33;;
31818;SDS011;18384;48.860;9.188;2022-08-20T12:55:15;7.85;;;2.17;;
31818;SDS011;18384;48.860;9.188;2022-08-20T12:57:48;7.18;;;1.87;;
31818;SDS011;18384;48.860;9.188;2022-08-20T13:03:09;4.18;;;1.70;;
31818;SDS011;18384;48.860;9.188;2022-08-20T13:05:37;5.72;;;1.77;;
31818;SDS011;18384;48.860;9.188;2022-08-20T13:08:05;6.93;;;1.67;;
31818;SDS011;18384;48.860;9.188;2022-08-20T13:10:35;6.60;;;1.75;;
31818;SDS011;18384;48.860;9.188;2022-08-20T13:13:09;6.00;;;1.80;;
31818;SDS011;18384;48.860;9.188;2022-08-20T13:15:40;5.95;;;1.52;;
31818;SDS011;18384;48.860;9.188;2022-08-20T13:18:06;4.68;;;1.27;;
31818;SDS011;18384;48.860;9.188;2022-08-20T13:20:32;3.72;;;1.15;;
31818;SDS011;18384;48.860;9.188;2022-08-20T13:22:59;4.18;;;1.42;;
31818;SDS011;18384;48.860;9.188;2022-08-20T13:25:28;3.58;;;1.30;;
31818;SDS011;18384;48.860;9.188;2022-08-20T13:27:55;3.87;;;1.35;;
31818;SDS011;18384;48.860;9.188;2022-08-20T13:30:25;3.12;;;1.58;;
31818;SDS011;18384;48.860;9.188;2022-08-20T13:32:52;8.25;;;1.75;;
31818;SDS011;18384;48.860;9.188;2022-08-20T13:37:44;3.85;;;1.62;;
31818;SDS011;18384;48.860;9.188;2022-08-20T13:40:11;3.72;;;1.90;;
31818;SDS011;18384;48.860;9.188;2022-08-20T13:45:04;4.15;;;2.20;;
31818;SDS011;18384;48.860;9.188;2022-08-20T13:47:33;3.62;;;1.77;;
31818;SDS011;18384;48.860;9.188;2022-08-20T13:50:09;5.72;;;2.08;;
31818;SDS011;18384;48.860;9.188;2022-08-20T13:52:44;3.30;;;1.70;;
31818;SDS011;18384;48.860;9.188;2022-08-20T13:55:11;5.22;;;2.25;;
31818;SDS011;18384;48.860;9.188;2022-08-20T13:57:41;4.87;;;1.80;;
31818;SDS011;18384;48.860;9.188;2022-08-20T14:00:10;5.62;;;1.77;;
31818;SDS011;18384;48.860;9.188;2022-08-20T14:02:44;5.15;;;1.90;;
31818;SDS011;18384;48.860;9.188;2022-08-20T14:05:10;10.70;;;2.12;;
31818;SDS011;18384;48.860;9.188;2022-08-20T14:07:38;4.90;;;1.80;;
31818;SDS011;18384;48.860;9.188;2022-08-20T14:12:45;3.95;;;2.03;;
31818;SDS011;18384;48.860;9.188;2022-08-20T14:15:11;6.62;;;1.83;;
31818;SDS011;18384;48.860;9.188;2022-08-20T14:17:38;4.00;;;1.90;;
31818;SDS011;18384;48.860;9.188;2022-08-20T14:20:10;5.82;;;1.70;;
31818;SDS011;18384;48.860;9.188;2022-08-20T14:22:39;7.40;;;1.75;;
31818;SDS011;18384;48.860;9.188;2022-08-20T14:25:07;6.82;;;1.70;;
31818;SDS011;18384;48.860;9.188;2022-08-20T14:27:37;5.82;;;3.05;;
31818;SDS011;18384;48.860;9.188;2022-08-20T14:30:05;6.03;;;2.00;;
31818;SDS011;18384;48.860;9.188;2022-08-20T14:32:35;2.58;;;1.50;;
31818;SDS011;18384;48.860;9.188;2022-08-20T14:35:01;3.47;;;1.33;;
31818;SDS011;18384;48.860;9.188;2022-08-20T14:37:35;4.97;;;1.27;;
31818;SDS011;18384;48.860;9.188;2022-08-20T14:40:06;2.47;;;1.20;;
31818;SDS011;18384;48.860;9.188;2022-08-20T14:42:35;2.17;;;1.30;;
31818;SDS011;18384;48.860;9.188;2022-08-20T14:45:05;5.90;;;1.42;;
31818;SDS011;18384;48.860;9.188;2022-08-20T14:47:36;3.40;;;1.40;;
31818;SDS011;18384;48.860;9.188;2022-08-20T14:50:15;2.05;;;1.10;;
31818;SDS011;18384;48.860;9.188;2022-08-20T14:53:04;3.00;;;1.25;;
31818;SDS011;18384;48.860;9.188;2022-08-20T14:55:32;3.17;;;1.33;;
31818;SDS011;18384;48.860;9.188;2022-08-20T14:58:05;2.08;;;1.23;;
31818;SDS011;18384;48.860;9.188;2022-08-20T15:00:33;1.70;;;0.88;;
31818;SDS011;18384;48.860;9.188;2022-08-20T15:02:59;1.62;;;0.90;;
31818;SDS011;18384;48.860;9.188;2022-08-20T15:07:52;2.50;;;1.20;;
31818;SDS011;18384;48.860;9.188;2022-08-20T15:10:28;3.50;;;1.10;;
31818;SDS011;18384;48.860;9.188;2022-08-20T15:12:56;1.58;;;0.82;;
31818;SDS011;18384;48.860;9.188;2022-08-20T15:15:23;1.90;;;0.88;;
31818;SDS011;18384;48.860;9.188;2022-08-20T15:17:52;1.92;;;1.00;;
31818;SDS011;18384;48.860;9.188;2022-08-20T15:20:22;2.47;;;1.02;;
31818;SDS011;18384;48.860;9.188;2022-08-20T15:22:50;2.67;;;1.12;;
31818;SDS011;18384;48.860;9.188;2022-08-20T15:25:18;2.45;;;0.80;;
31818;SDS011;18384;48.860;9.188;2022-08-20T15:27:47;2.95;;;1.40;;
31818;SDS011;18384;48.860;9.188;2022-08-20T15:30:16;1.65;;;1.00;;
31818;SDS011;18384;48.860;9.188;2022-08-20T15:32:45;2.47;;;0.80;;
31818;SDS011;18384;48.860;9.188;2022-08-20T15:35:12;1.60;;;0.73;;
31818;SDS011;18384;48.860;9.188;2022-08-20T15:37:39;1.73;;;0.93;;
31818;SDS011;18384;48.860;9.188;2022-08-20T15:40:08;14.18;;;8.90;;
31818;SDS011;18384;48.860;9.188;2022-08-20T15:42:35;3.60;;;1.90;;
31818;SDS011;18384;48.860;9.188;2022-08-20T15:45:03;3.15;;;1.25;;
31818;SDS011;18384;48.860;9.188;2022-08-20T15:47:33;3.42;;;1.10;;
31818;SDS011;18384;48.860;9.188;2022-08-20T15:54:11;3.25;;;1.15;;
31818;SDS011;18384;48.860;9.188;2022-08-20T15:56:59;5.60;;;2.80;;
31818;SDS011;18384;48.860;9.188;2022-08-20T16:09:05;2.35;;;1.20;;
31818;SDS011;18384;48.860;9.188;2022-08-20T16:13:38;1.92;;;0.80;;
31818;SDS011;18384;48.860;9.188;2022-08-20T16:16:13;5.78;;;0.98;;
31818;SDS011;18384;48.860;9.188;2022-08-20T16:18:57;2.42;;;1.00;;
31818;SDS011;18384;48.860;9.188;2022-08-20T16:21:27;2.28;;;0.82;;
31818;SDS011;18384;48.860;9.188;2022-08-20T16:23:59;2.70;;;1.08;;
31818;SDS011;18384;48.860;9.188;2022-08-20T16:36:11;3.97;;;0.75;;
31818;SDS011;18384;48.860;9.188;2022-08-20T16:44:34;2.65;;;0.70;;
31818;SDS011;18384;48.860;9.188;2022-08-20T16:47:21;1.80;;;1.00;;
31818;SDS011;18384;48.860;9.188;2022-08-20T16:50:00;1.67;;;0.70;;
31818;SDS011;18384;48.860;9.188;2022-08-20T16:52:41;1.87;;;0.80;;
31818;SDS011;18384;48.860;9.188;2022-08-20T16:55:11;3.12;;;1.10;;
31818;SDS011;18384;48.860;9.188;2022-08-20T16:57:38;2.35;;;0.90;;
31818;SDS011;18384;48.860;9.188;2022-08-20T17:00:23;2.35;;;0.93;;
31818;SDS011;18384;48.860;9.188;2022-08-20T17:03:01;2.70;;;0.82;;
31818;SDS011;18384;48.860;9.188;2022-08-20T17:05:45;2.53;;;1.00;;